createdAt,value
2019-02-20T00:02:18.271Z,95474.97
2019-02-20T00:04:48.178Z,95474.05
2019-02-20T00:07:17.913Z,95468.70
2019-02-20T00:09:47.804Z,95469.81
2019-02-20T00:12:17.696Z,95470.67
2019-02-20T00:14:47.424Z,95468.19
2019-02-20T00:17:17.254Z,95474.68
2019-02-20T00:19:47.166Z,95466.55
2019-02-20T00:22:17.080Z,95461.20
2019-02-20T00:24:47.052Z,95467.56
2019-02-20T00:27:16.992Z,95460.16
2019-02-20T00:29:46.755Z,95467.37
2019-02-20T00:32:16.560Z,95469.23
2019-02-20T00:34:46.359Z,95469.94
2019-02-20T00:37:16.252Z,95462.73
2019-02-20T00:39:45.975Z,95465.11
2019-02-20T00:42:15.987Z,95463.55
2019-02-20T00:45:04.737Z,95458.62
2019-02-20T00:47:58.207Z,95458.62
2019-02-20T00:50:29.855Z,95451.63
2019-02-20T00:53:27.628Z,95449.48
2019-02-20T00:55:57.455Z,95449.78
2019-02-20T00:58:27.298Z,95446.91
2019-02-20T01:00:57.374Z,95444.01
2019-02-20T01:03:27.126Z,95448.84
2019-02-20T01:05:56.902Z,95440.71
2019-02-20T01:08:26.666Z,95439.18
2019-02-20T01:10:56.542Z,95442.37
2019-02-20T01:13:26.481Z,95435.47
2019-02-20T01:15:56.299Z,95443.48
2019-02-20T01:18:26.181Z,95446.48
2019-02-20T01:20:56.027Z,95449.69
2019-02-20T01:23:26.148Z,95445.87
2019-02-20T01:25:55.952Z,95445.77
2019-02-20T01:28:25.695Z,95450.00
2019-02-20T01:30:55.375Z,95445.77
2019-02-20T01:33:25.090Z,95449.16
2019-02-20T01:35:54.726Z,95447.33
2019-02-20T01:38:24.311Z,95444.95
2019-02-20T01:40:53.927Z,95447.33
2019-02-20T01:43:23.692Z,95439.72
2019-02-20T01:45:53.350Z,95445.37
2019-02-20T01:48:23.042Z,95441.88
2019-02-20T01:50:52.824Z,95442.40
2019-02-20T01:53:22.571Z,95440.73
2019-02-20T01:55:52.282Z,95441.77
2019-02-20T01:58:22.021Z,95444.45
2019-02-20T02:00:51.824Z,95438.77
2019-02-20T02:03:21.439Z,95434.56
2019-02-20T02:05:51.238Z,95433.03
2019-02-20T02:08:20.956Z,95428.41
2019-02-20T02:10:50.690Z,95432.09
2019-02-20T02:13:20.389Z,95425.92
2019-02-20T02:15:50.193Z,95429.02
2019-02-20T02:18:19.803Z,95423.77
2019-02-20T02:20:49.603Z,95423.77
2019-02-20T02:23:20.063Z,95422.66
2019-02-20T02:25:49.862Z,95425.11
2019-02-20T02:28:19.548Z,95424.81
2019-02-20T02:30:49.221Z,95420.47
2019-02-20T02:33:19.169Z,95416.88
2019-02-20T02:35:48.970Z,95421.81
2019-02-20T02:38:18.588Z,95419.55
2019-02-20T02:40:48.309Z,95423.14
2019-02-20T02:43:18.020Z,95426.86
2019-02-20T02:45:47.642Z,95427.58
2019-02-20T02:48:17.261Z,95431.59
2019-02-20T02:50:47.041Z,95420.30
2019-02-20T02:53:16.807Z,95422.45
2019-02-20T02:55:46.472Z,95428.91
2019-02-20T02:58:16.136Z,95431.48
2019-02-20T03:00:45.781Z,95435.00
2019-02-20T03:03:15.505Z,95427.70
2019-02-20T03:05:45.265Z,95425.64
2019-02-20T03:08:15.018Z,95423.69
2019-02-20T03:10:44.731Z,95417.52
2019-02-20T03:13:14.448Z,95421.20
2019-02-20T03:15:44.062Z,95428.70
2019-02-20T03:18:13.861Z,95441.26
2019-02-20T03:20:43.479Z,95439.62
2019-02-20T03:23:13.189Z,95443.73
2019-02-20T03:25:42.836Z,95443.11
2019-02-20T03:28:12.405Z,95437.66
2019-02-20T03:30:42.109Z,95442.48
2019-02-20T03:33:11.852Z,95436.84
2019-02-20T03:35:41.530Z,95438.70
2019-02-20T03:38:11.217Z,95431.50
2019-02-20T03:40:40.950Z,95430.68
2019-02-20T03:43:10.635Z,95436.84
2019-02-20T03:45:40.389Z,95437.56
2019-02-20T03:48:10.015Z,95439.00
2019-02-20T03:50:39.699Z,95434.17
2019-02-20T03:53:09.330Z,95442.48
2019-02-20T03:55:39.121Z,95440.66
2019-02-20T03:58:08.866Z,95434.06
2019-02-20T04:00:38.538Z,95433.55
2019-02-20T04:03:08.265Z,95423.08
2019-02-20T04:05:37.884Z,95425.23
2019-02-20T04:08:07.782Z,95424.94
2019-02-20T04:10:37.396Z,95425.75
2019-02-20T04:13:07.304Z,95427.91
2019-02-20T04:15:36.939Z,95422.04
2019-02-20T04:18:06.636Z,95424.09
2019-02-20T04:20:36.262Z,95419.26
2019-02-20T04:23:06.087Z,95410.42
2019-02-20T04:25:35.564Z,95411.24
2019-02-20T04:28:05.271Z,95407.98
2019-02-20T04:30:34.969Z,95414.95
2019-02-20T04:33:04.727Z,95411.98
2019-02-20T04:35:34.386Z,95413.32
2019-02-20T04:38:04.234Z,95427.17
2019-02-20T04:40:34.084Z,95433.38
2019-02-20T04:43:03.935Z,95427.28
2019-02-20T04:45:33.646Z,95418.23
2019-02-20T04:48:03.372Z,95429.03
2019-02-20T04:50:32.964Z,95428.02
2019-02-20T04:53:02.598Z,95434.59
2019-02-20T04:55:32.278Z,95427.48
2019-02-20T04:58:35.996Z,95421.34
2019-02-20T05:01:05.695Z,95428.21
2019-02-20T05:03:35.365Z,95424.51
2019-02-20T05:06:05.146Z,95426.53
2019-02-20T05:08:34.963Z,95432.51
2019-02-20T05:11:04.776Z,95433.73
2019-02-20T05:13:34.444Z,95434.66
2019-02-20T05:16:03.966Z,95436.37
2019-02-20T05:18:33.726Z,95434.53
2019-02-20T05:21:03.397Z,95442.98
2019-02-20T05:23:33.227Z,95438.86
2019-02-20T05:26:03.666Z,95440.50
2019-02-20T05:28:33.664Z,95441.94
2019-02-20T05:31:04.104Z,95451.08
2019-02-20T05:33:33.781Z,95451.07
2019-02-20T05:36:03.430Z,95454.26
2019-02-20T05:38:33.108Z,95458.45
2019-02-20T05:41:02.804Z,95459.48
2019-02-20T05:43:32.531Z,95465.94
2019-02-20T05:46:02.239Z,95475.88
2019-02-20T05:48:31.959Z,95471.63
2019-02-20T05:51:01.659Z,95473.09
2019-02-20T05:53:31.405Z,95478.93
2019-02-20T05:56:01.117Z,95479.54
2019-02-20T05:58:30.720Z,95485.91
2019-02-20T06:01:00.342Z,95482.10
2019-02-20T06:03:29.957Z,95482.23
2019-02-20T06:05:59.630Z,95488.83
2019-02-20T06:08:29.339Z,95493.89
2019-02-20T06:10:58.951Z,95492.52
2019-02-20T06:13:28.757Z,95494.59
2019-02-20T06:15:58.675Z,95496.17
2019-02-20T06:18:28.521Z,95497.44
2019-02-20T06:20:58.108Z,95492.09
2019-02-20T06:23:27.923Z,95489.22
2019-02-20T06:25:57.629Z,95496.52
2019-02-20T06:28:27.363Z,95499.77
2019-02-20T06:30:57.013Z,95502.06
2019-02-20T06:33:26.675Z,95509.08
2019-02-20T06:35:56.364Z,95513.44
2019-02-20T06:38:26.102Z,95519.86
2019-02-20T06:40:55.797Z,95525.28
2019-02-20T06:43:25.347Z,95530.91
2019-02-20T06:45:55.132Z,95530.39
2019-02-20T06:48:24.770Z,95527.36
2019-02-20T06:50:54.617Z,95531.90
2019-02-20T06:53:24.394Z,95532.94
2019-02-20T06:55:54.239Z,95536.08
2019-02-20T06:58:23.993Z,95538.34
2019-02-20T07:00:53.670Z,95541.94
2019-02-20T07:03:23.305Z,95537.02
2019-02-20T07:06:30.807Z,95544.20
2019-02-20T07:09:56.296Z,95543.80
2019-02-20T07:12:50.202Z,95540.72
2019-02-20T07:15:48.354Z,95544.95
2019-02-20T07:18:46.128Z,95541.23
2019-02-20T07:21:51.874Z,95541.84
2019-02-20T07:24:49.340Z,95541.53
2019-02-20T07:28:01.212Z,95540.95
2019-02-20T07:30:31.052Z,95542.58
2019-02-20T07:33:00.780Z,95542.47
2019-02-20T07:35:30.479Z,95538.16
2019-02-20T07:38:00.212Z,95542.17
2019-02-20T07:40:29.925Z,95536.41
2019-02-20T07:43:00.267Z,95538.80
2019-02-20T07:45:29.978Z,95537.77
2019-02-20T07:47:59.744Z,95543.16
2019-02-20T07:50:29.496Z,95537.12
2019-02-20T07:52:59.100Z,95531.03
2019-02-20T07:55:29.088Z,95536.08
2019-02-20T07:57:59.747Z,95540.16
2019-02-20T08:00:29.438Z,95544.68
2019-02-20T08:02:59.184Z,95543.11
2019-02-20T08:05:28.945Z,95540.56
2019-02-20T08:07:58.407Z,95538.63
2019-02-20T08:10:28.008Z,95534.75
2019-02-20T08:12:57.670Z,95540.72
2019-02-20T08:15:27.309Z,95543.80
2019-02-20T08:17:56.999Z,95541.80
2019-02-20T08:20:26.725Z,95546.03
2019-02-20T08:22:56.417Z,95543.80
2019-02-20T08:25:26.165Z,95547.14
2019-02-20T08:27:55.750Z,95542.61
2019-02-20T08:30:25.518Z,95539.23
2019-02-20T08:32:55.180Z,95535.55
2019-02-20T08:35:25.820Z,95533.07
2019-02-20T08:37:55.597Z,95533.70
2019-02-20T08:40:25.309Z,95527.23
2019-02-20T08:42:55.119Z,95535.03
2019-02-20T08:45:24.799Z,95534.41
2019-02-20T08:47:54.451Z,95527.02
2019-02-20T08:50:24.039Z,95527.64
2019-02-20T08:52:53.817Z,95529.82
2019-02-20T08:55:31.547Z,95526.52
2019-02-20T08:57:54.946Z,95531.97
2019-02-20T09:00:24.663Z,95532.19
2019-02-20T09:02:54.349Z,95533.82
2019-02-20T09:05:23.980Z,95534.23
2019-02-20T09:07:53.661Z,95527.74
2019-02-20T09:10:23.487Z,95537.83
2019-02-20T09:12:53.199Z,95533.22
2019-02-20T09:15:22.826Z,95532.89
2019-02-20T09:17:52.574Z,95527.02
2019-02-20T09:20:22.222Z,95537.42
2019-02-20T09:22:51.965Z,95539.05
2019-02-20T09:25:21.703Z,95534.66
2019-02-20T09:27:51.341Z,95525.80
2019-02-20T09:30:28.351Z,95523.12
2019-02-20T09:32:52.620Z,95517.05
2019-02-20T09:35:22.333Z,95522.30
2019-02-20T09:37:51.966Z,95518.20
2019-02-20T09:40:21.691Z,95520.03
2019-02-20T09:42:51.375Z,95516.34
2019-02-20T09:45:21.088Z,95522.29
2019-02-20T09:47:50.795Z,95518.80
2019-02-20T09:50:20.496Z,95521.05
2019-02-20T09:52:52.690Z,95510.69
2019-02-20T09:55:21.752Z,95507.91
2019-02-20T09:57:51.395Z,95511.69
2019-02-20T10:00:21.467Z,95505.84
2019-02-20T10:02:52.418Z,95501.42
2019-02-20T10:05:22.192Z,95506.38
2019-02-20T10:07:51.944Z,95495.16
2019-02-20T10:10:21.677Z,95492.89
2019-02-20T10:12:51.377Z,95483.31
2019-02-20T10:15:21.013Z,95478.19
2019-02-20T10:20:19.191Z,95473.77
2019-02-20T10:22:48.879Z,95467.17
2019-02-20T10:25:18.567Z,95462.23
2019-02-20T10:27:48.399Z,95453.09
2019-02-20T10:32:46.531Z,95466.77
2019-02-20T10:35:16.302Z,95450.95
2019-02-20T10:37:46.035Z,95455.12
2019-02-20T10:40:15.727Z,95448.36
2019-02-20T10:42:45.449Z,95437.64
2019-02-20T10:45:15.164Z,95442.47
2019-02-20T10:47:44.866Z,95446.79
2019-02-20T10:50:14.906Z,95426.95
2019-02-20T10:52:44.638Z,95429.82
2019-02-20T10:55:14.227Z,95422.83
2019-02-20T10:57:43.933Z,95424.27
2019-02-20T11:00:24.231Z,95418.08
2019-02-20T11:02:53.186Z,95403.50
2019-02-20T11:05:23.003Z,95411.71
2019-02-20T11:07:52.615Z,95413.98
2019-02-20T11:10:24.017Z,95401.03
2019-02-20T11:12:53.973Z,95403.30
2019-02-20T11:15:23.896Z,95391.39
2019-02-20T11:17:53.497Z,95392.52
2019-02-20T11:20:23.197Z,95398.16
2019-02-20T11:22:52.934Z,95396.73
2019-02-20T11:25:22.640Z,95394.35
2019-02-20T11:27:52.250Z,95386.85
2019-02-20T11:30:22.087Z,95390.86
2019-02-20T11:32:51.777Z,95377.39
2019-02-20T11:35:21.483Z,95383.46
2019-02-20T11:37:51.207Z,95388.29
2019-02-20T11:40:20.794Z,95382.61
2019-02-20T11:42:50.498Z,95366.37
2019-02-20T11:45:20.128Z,95380.14
2019-02-20T11:47:49.813Z,95387.16
2019-02-20T11:50:19.431Z,95383.14
2019-02-20T11:52:49.139Z,95378.61
2019-02-20T11:55:18.831Z,95377.17
2019-02-20T11:57:48.471Z,95385.72
2019-02-20T12:00:18.259Z,95371.59
2019-02-20T12:02:47.935Z,95376.13
2019-02-20T12:05:17.604Z,95379.84
2019-02-20T12:07:47.222Z,95379.12
2019-02-20T12:10:18.133Z,95381.05
2019-02-20T12:12:47.947Z,95381.38
2019-02-20T12:15:17.568Z,95382.72
2019-02-20T12:17:47.371Z,95377.56
2019-02-20T12:20:17.000Z,95373.84
2019-02-20T12:22:46.848Z,95383.73
2019-02-20T12:25:16.632Z,95377.66
2019-02-20T12:27:46.350Z,95378.48
2019-02-20T12:30:15.924Z,95372.94
2019-02-20T12:32:45.624Z,95374.27
2019-02-20T12:35:15.349Z,95383.93
2019-02-20T12:37:44.973Z,95378.48
2019-02-20T12:40:14.656Z,95373.33
2019-02-20T12:42:44.287Z,95380.53
2019-02-20T12:45:14.075Z,95376.52
2019-02-20T12:47:44.981Z,95367.78
2019-02-20T12:50:14.662Z,95359.53
2019-02-20T12:52:44.456Z,95366.12
2019-02-20T12:55:15.539Z,95364.98
2019-02-20T12:57:45.491Z,95359.11
2019-02-20T13:00:17.039Z,95358.00
2019-02-20T13:02:46.871Z,95366.31
2019-02-20T13:05:16.874Z,95364.03
2019-02-20T13:07:47.125Z,95361.59
2019-02-20T13:10:16.863Z,95355.52
2019-02-20T13:12:46.891Z,95356.95
2019-02-20T13:15:16.644Z,95367.52
2019-02-20T13:17:46.383Z,95359.11
2019-02-20T13:20:16.093Z,95366.19
2019-02-20T13:22:45.801Z,95363.52
2019-02-20T13:25:15.595Z,95370.39
2019-02-20T13:27:45.232Z,95364.36
2019-02-20T13:30:15.020Z,95368.05
2019-02-20T13:32:44.770Z,95360.73
2019-02-20T13:35:14.544Z,95369.28
2019-02-20T13:37:44.287Z,95373.07
2019-02-20T13:40:13.979Z,95367.42
2019-02-20T13:42:44.601Z,95369.88
2019-02-20T13:45:14.348Z,95374.21
2019-02-20T13:47:44.050Z,95370.62
2019-02-20T13:50:14.306Z,95359.06
2019-02-20T13:52:52.008Z,95355.96
2019-02-20T13:55:16.069Z,95358.16
2019-02-20T13:57:45.783Z,95356.39
2019-02-20T14:00:15.435Z,95364.89
2019-02-20T14:02:45.102Z,95360.41
2019-02-20T14:05:14.957Z,95368.14
2019-02-20T14:07:45.724Z,95371.73
2019-02-20T14:10:15.320Z,95368.81
2019-02-20T14:12:45.156Z,95373.68
2019-02-20T14:15:17.539Z,95373.25
2019-02-20T14:17:47.441Z,95374.27
2019-02-20T14:20:17.109Z,95375.02
2019-02-20T14:22:46.717Z,95380.05
2019-02-20T14:25:16.436Z,95378.80
2019-02-20T14:27:46.062Z,95380.48
2019-02-20T14:30:15.753Z,95376.27
2019-02-20T14:32:45.435Z,95380.57
2019-02-20T14:35:15.396Z,95380.38
2019-02-20T14:37:45.033Z,95393.53
2019-02-20T14:40:14.731Z,95394.68
2019-02-20T14:42:44.420Z,95396.77
2019-02-20T14:45:14.123Z,95401.50
2019-02-20T14:47:43.836Z,95396.06
2019-02-20T14:50:13.465Z,95395.63
2019-02-20T14:52:43.402Z,95399.22
2019-02-20T14:55:13.105Z,95400.36
2019-02-20T14:57:42.780Z,95393.67
2019-02-20T15:00:13.044Z,95393.81
2019-02-20T15:02:42.780Z,95405.95
2019-02-20T15:05:12.542Z,95401.31
2019-02-20T15:07:42.234Z,95401.52
2019-02-20T15:10:11.871Z,95401.22
2019-02-20T15:12:41.565Z,95406.28
2019-02-20T15:15:11.201Z,95405.95
2019-02-20T15:17:40.986Z,95402.16
2019-02-20T15:20:11.518Z,95401.64
2019-02-20T15:22:41.153Z,95407.13
2019-02-20T15:25:10.922Z,95404.84
2019-02-20T15:27:40.676Z,95412.97
2019-02-20T15:30:12.529Z,95406.09
2019-02-20T15:32:42.727Z,95416.66
2019-02-20T15:35:12.359Z,95419.95
2019-02-20T15:37:42.071Z,95420.25
2019-02-20T15:40:11.755Z,95420.86
2019-02-20T15:42:41.515Z,95421.69
2019-02-20T15:45:11.280Z,95415.84
2019-02-20T15:47:40.992Z,95422.53
2019-02-20T15:50:11.593Z,95425.20
2019-02-20T15:52:41.371Z,95426.84
2019-02-20T15:55:11.521Z,95426.41
2019-02-20T15:57:41.315Z,95436.50
2019-02-20T16:00:12.577Z,95427.88
2019-02-20T16:02:42.406Z,95427.56
2019-02-20T16:05:12.561Z,95437.31
2019-02-20T16:07:42.260Z,95453.18
2019-02-20T16:10:11.892Z,95448.25
2019-02-20T16:12:43.053Z,95452.56
2019-02-20T16:15:14.595Z,95456.28
2019-02-20T16:17:44.945Z,95459.77
2019-02-20T16:20:15.029Z,95463.27
2019-02-20T16:22:44.790Z,95467.80
2019-02-20T16:25:14.846Z,95473.97
2019-02-20T16:27:47.317Z,95478.22
2019-02-20T16:30:16.019Z,95475.44
2019-02-20T16:32:45.654Z,95479.45
2019-02-20T16:35:15.635Z,95487.78
2019-02-20T16:37:45.276Z,95491.50
2019-02-20T16:40:14.853Z,95494.41
2019-02-20T16:42:44.522Z,95498.54
2019-02-20T16:45:24.360Z,95504.81
2019-02-20T16:47:54.355Z,95506.56
2019-02-20T16:50:24.071Z,95508.09
2019-02-20T16:52:53.804Z,95510.02
2019-02-20T16:55:23.503Z,95517.82
2019-02-20T16:57:56.731Z,95510.38
2019-02-20T17:00:24.613Z,95522.20
2019-02-20T17:02:54.750Z,95530.48
2019-02-20T17:05:24.589Z,95527.09
2019-02-20T17:07:54.476Z,95544.54
2019-02-20T17:10:24.210Z,95540.52
2019-02-20T17:12:54.012Z,95540.55
2019-02-20T17:15:23.597Z,95543.00
2019-02-20T17:17:53.516Z,95544.98
2019-02-20T17:20:23.263Z,95553.32
2019-02-20T17:22:52.990Z,95556.64
2019-02-20T17:25:22.648Z,95555.30
2019-02-20T17:27:52.368Z,95560.03
2019-02-20T17:30:21.995Z,95566.44
2019-02-20T17:32:51.895Z,95560.33
2019-02-20T17:35:21.577Z,95566.02
2019-02-20T17:37:51.307Z,95561.57
2019-02-20T17:40:21.005Z,95566.20
2019-02-20T17:42:50.657Z,95564.46
2019-02-20T17:45:20.576Z,95570.96
2019-02-20T17:47:50.160Z,95576.73
2019-02-20T17:50:19.791Z,95574.36
2019-02-20T17:52:49.613Z,95580.75
2019-02-20T17:55:19.392Z,95583.20
2019-02-20T17:57:49.140Z,95582.98
2019-02-20T18:00:20.033Z,95585.28
2019-02-20T18:02:49.761Z,95592.50
2019-02-20T18:05:19.381Z,95586.42
2019-02-20T18:07:51.850Z,95590.84
2019-02-20T18:10:20.330Z,95595.69
2019-02-20T18:12:50.031Z,95599.99
2019-02-20T18:15:19.668Z,95600.62
2019-02-20T18:17:49.411Z,95599.99
2019-02-20T18:20:19.173Z,95602.87
2019-02-20T18:22:49.073Z,95605.24
2019-02-20T18:25:18.762Z,95606.27
2019-02-20T18:27:48.603Z,95607.52
2019-02-20T18:30:18.089Z,95612.35
2019-02-20T18:32:47.875Z,95607.10
2019-02-20T18:35:17.653Z,95607.00
2019-02-20T18:37:47.275Z,95611.31
2019-02-20T18:40:17.039Z,95618.52
2019-02-20T18:42:46.868Z,95621.72
2019-02-20T18:45:16.587Z,95619.34
2019-02-20T18:47:46.258Z,95629.34
2019-02-20T18:50:16.053Z,95628.00
2019-02-20T18:52:45.960Z,95626.03
2019-02-20T18:55:15.640Z,95631.08
2019-02-20T18:57:45.381Z,95632.83
2019-02-20T19:00:15.775Z,95634.06
2019-02-20T19:02:45.501Z,95640.98
2019-02-20T19:05:15.298Z,95639.94
2019-02-20T19:07:44.942Z,95644.70
2019-02-20T19:10:18.310Z,95650.24
2019-02-20T19:13:29.756Z,95653.02
2019-02-20T19:16:14.666Z,95652.11
2019-02-20T19:19:08.446Z,95652.50
2019-02-20T19:22:27.606Z,95654.78
2019-02-20T19:25:42.694Z,95656.12
2019-02-20T19:28:56.281Z,95658.88
2019-02-20T19:32:17.878Z,95663.12
2019-02-20T19:35:20.288Z,95673.82
2019-02-20T19:38:22.897Z,95669.58
2019-02-20T19:41:54.961Z,95672.67
2019-02-20T19:44:56.832Z,95668.47
2019-02-20T19:48:15.634Z,95679.06
2019-02-20T19:51:21.927Z,95677.43
2019-02-20T19:54:18.311Z,95679.70
2019-02-20T19:57:22.784Z,95683.08
2019-02-20T20:00:14.985Z,95683.38
2019-02-20T20:03:08.373Z,95681.45
2019-02-20T20:06:18.709Z,95679.17
2019-02-20T20:09:10.425Z,95682.45
2019-02-20T20:12:14.664Z,95682.77
2019-02-20T20:15:24.002Z,95679.99
2019-02-20T20:18:37.403Z,95680.70
2019-02-20T20:22:05.741Z,95678.77
2019-02-20T20:24:57.135Z,95690.19
2019-02-20T20:28:02.421Z,95690.19
2019-02-20T20:31:20.966Z,95685.77
2019-02-20T20:34:33.162Z,95689.26
2019-02-20T20:37:15.607Z,95690.59
2019-02-20T20:40:38.102Z,95690.27
2019-02-20T20:43:57.787Z,95693.27
2019-02-20T20:47:20.373Z,95697.47
2019-02-20T20:50:15.434Z,95706.24
2019-02-20T20:53:28.041Z,95713.02
2019-02-20T20:56:29.821Z,95715.80
2019-02-20T20:59:46.126Z,95711.38
2019-02-20T21:02:29.159Z,95711.38
2019-02-20T21:05:50.747Z,95710.55
2019-02-20T21:08:54.072Z,95714.05
2019-02-20T21:11:55.102Z,95721.37
2019-02-20T21:15:11.629Z,95717.03
2019-02-20T21:18:15.358Z,95721.67
2019-02-20T21:21:14.324Z,95712.72
2019-02-20T21:24:15.506Z,95714.05
2019-02-20T21:27:12.219Z,95716.31
2019-02-20T21:30:25.568Z,95718.88
2019-02-20T21:33:35.940Z,95726.50
2019-02-20T21:36:12.232Z,95729.59
2019-02-20T21:39:08.013Z,95724.56
2019-02-20T21:41:58.804Z,95723.63
2019-02-20T21:44:57.233Z,95721.78
2019-02-20T21:47:45.856Z,95720.73
2019-02-20T21:50:29.496Z,95717.77
2019-02-20T21:53:25.002Z,95724.97
2019-02-20T21:56:28.103Z,95728.14
2019-02-20T21:59:50.448Z,95724.86
2019-02-20T22:02:53.067Z,95725.16
2019-02-20T22:06:08.216Z,95726.39
2019-02-20T22:09:04.504Z,95730.78
2019-02-20T22:11:55.376Z,95732.48
2019-02-20T22:14:52.716Z,95737.09
2019-02-20T22:17:48.119Z,95740.06
2019-02-20T22:20:53.169Z,95740.59
2019-02-20T22:23:58.204Z,95742.45
2019-02-20T22:27:06.718Z,95742.63
2019-02-20T22:30:08.580Z,95743.45
2019-02-20T22:33:03.996Z,95752.00
2019-02-20T22:36:10.374Z,95746.02
2019-02-20T22:39:13.133Z,95745.20
2019-02-20T22:42:38.680Z,95741.92
2019-02-20T22:45:33.665Z,95744.30
2019-02-20T22:48:31.773Z,95745.12
2019-02-20T22:51:54.007Z,95741.41
2019-02-20T22:55:11.648Z,95739.63
2019-02-20T22:58:19.436Z,95741.30
2019-02-20T23:01:35.946Z,95737.77
2019-02-20T23:04:20.305Z,95741.70
2019-02-20T23:07:04.199Z,95746.02
2019-02-20T23:09:52.821Z,95746.02
2019-02-20T23:13:05.869Z,95739.73
2019-02-20T23:15:35.537Z,95736.35
2019-02-20T23:18:05.238Z,95744.75
2019-02-20T23:20:34.959Z,95746.53
2019-02-20T23:23:04.592Z,95749.51
2019-02-20T23:25:34.279Z,95747.87
2019-02-20T23:28:03.921Z,95741.89
2019-02-20T23:30:33.617Z,95744.67
2019-02-20T23:33:03.233Z,95743.23
2019-02-20T23:35:32.955Z,95743.64
2019-02-20T23:38:02.618Z,95747.05
2019-02-20T23:40:32.342Z,95748.98
2019-02-20T23:43:02.062Z,95744.45
2019-02-20T23:45:31.680Z,95754.67
2019-02-20T23:48:01.365Z,95748.69
2019-02-20T23:50:31.102Z,95749.51
2019-02-20T23:53:00.796Z,95747.87
2019-02-20T23:55:30.495Z,95748.69
2019-02-20T23:58:00.213Z,95751.88
